createdAt,value
2019-04-27T00:00:00.610Z,36.40
2019-04-27T00:05:35.493Z,36.60
2019-04-27T00:10:53.302Z,36.30
2019-04-27T00:16:27.060Z,36.10
2019-04-27T00:21:52.902Z,35.90
2019-04-27T00:26:59.439Z,35.80
2019-04-27T00:32:05.841Z,35.90
2019-04-27T00:37:39.746Z,35.80
2019-04-27T00:42:45.837Z,35.80
2019-04-27T00:47:59.048Z,35.60
2019-04-27T00:53:00.445Z,35.80
2019-04-27T00:58:33.435Z,35.70
2019-04-27T01:03:45.717Z,35.60
2019-04-27T01:08:53.107Z,35.50
2019-04-27T01:13:59.141Z,36.00
2019-04-27T01:19:05.013Z,36.10
2019-04-27T01:24:11.813Z,36.00
2019-04-27T01:29:20.461Z,36.10
2019-04-27T01:34:26.790Z,36.00
2019-04-27T01:39:32.756Z,36.00
2019-04-27T01:44:39.353Z,36.20
2019-04-27T01:49:45.722Z,36.20
2019-04-27T01:54:51.238Z,36.00
2019-04-27T01:59:59.019Z,35.90
2019-04-27T02:05:35.932Z,35.90
2019-04-27T02:10:41.920Z,36.00
2019-04-27T02:15:48.666Z,36.00
2019-04-27T02:20:54.645Z,36.00
2019-04-27T02:26:00.383Z,36.10
2019-04-27T02:31:40.200Z,36.20
2019-04-27T02:36:46.666Z,36.50
2019-04-27T02:41:52.204Z,36.30
2019-04-27T02:47:00.357Z,36.40
2019-04-27T02:52:24.705Z,37.00
2019-04-27T02:57:30.510Z,36.40
2019-04-27T03:02:52.881Z,36.50
2019-04-27T03:07:59.603Z,37.40
2019-04-27T03:13:15.139Z,36.50
2019-04-27T03:18:41.017Z,36.70
2019-04-27T03:23:47.086Z,36.60
2019-04-27T03:28:54.328Z,36.60
2019-04-27T03:34:04.815Z,36.70
2019-04-27T03:39:10.156Z,36.70
2019-04-27T03:44:16.022Z,36.90
2019-04-27T03:49:35.054Z,37.10
2019-04-27T03:54:51.177Z,37.10
2019-04-27T04:00:10.095Z,37.20
2019-04-27T04:05:15.451Z,37.30
2019-04-27T04:10:21.214Z,37.50
2019-04-27T04:15:52.572Z,37.60
2019-04-27T04:21:00.444Z,37.40
2019-04-27T04:26:06.125Z,37.30
2019-04-27T04:31:13.874Z,37.40
2019-04-27T04:36:20.101Z,37.60
2019-04-27T04:41:36.336Z,37.20
2019-04-27T04:46:51.504Z,37.10
2019-04-27T04:51:59.433Z,37.00
2019-04-27T04:57:04.914Z,37.20
2019-04-27T05:02:10.736Z,37.30
2019-04-27T05:07:16.540Z,37.40
2019-04-27T05:12:22.062Z,37.70
2019-04-27T05:17:27.569Z,37.80
2019-04-27T05:22:33.503Z,38.80
2019-04-27T05:27:40.711Z,38.30
2019-04-27T05:32:49.449Z,38.10
2019-04-27T05:37:55.238Z,38.20
2019-04-27T05:43:00.802Z,38.30
2019-04-27T05:48:10.990Z,38.30
2019-04-27T05:53:16.984Z,38.40
2019-04-27T05:58:23.893Z,38.40
2019-04-27T06:03:29.799Z,39.10
2019-04-27T06:08:35.462Z,38.70
2019-04-27T06:13:41.159Z,38.70
2019-04-27T06:18:47.204Z,38.60
2019-04-27T06:23:52.874Z,38.50
2019-04-27T06:28:59.513Z,38.60
2019-04-27T06:34:05.573Z,38.50
2019-04-27T06:39:11.075Z,38.40
2019-04-27T06:44:16.771Z,38.30
2019-04-27T06:49:24.176Z,38.20
2019-04-27T06:54:30.050Z,38.20
2019-04-27T06:59:36.016Z,38.10
2019-04-27T07:04:41.701Z,38.10
2019-04-27T07:09:49.326Z,38.00
2019-04-27T07:14:55.428Z,38.20
2019-04-27T07:20:01.077Z,38.00
2019-04-27T07:25:09.029Z,38.10
2019-04-27T07:30:16.079Z,38.10
2019-04-27T07:35:22.045Z,38.10
2019-04-27T07:40:30.122Z,37.90
2019-04-27T07:45:39.436Z,37.80
2019-04-27T07:50:44.913Z,37.70
2019-04-27T07:55:50.742Z,37.60
2019-04-27T08:00:56.549Z,37.50
2019-04-27T08:06:02.502Z,37.40
2019-04-27T08:11:08.849Z,37.30
2019-04-27T08:16:15.777Z,37.10
2019-04-27T08:21:21.533Z,37.00
2019-04-27T08:26:46.137Z,37.10
2019-04-27T08:31:55.938Z,39.90
2019-04-27T08:37:02.217Z,38.60
2019-04-27T08:42:09.559Z,37.50
2019-04-27T08:47:15.305Z,36.70
2019-04-27T08:52:21.286Z,36.10
2019-04-27T08:57:28.871Z,35.90
2019-04-27T09:02:44.678Z,35.80
2019-04-27T09:13:04.294Z,35.60
2019-04-27T09:18:12.091Z,36.90
2019-04-27T09:23:18.884Z,38.40
2019-04-27T09:28:24.908Z,38.30
2019-04-27T09:33:32.066Z,38.50
2019-04-27T09:38:37.787Z,38.20
2019-04-27T09:43:43.623Z,37.60
2019-04-27T09:48:49.350Z,37.00
2019-04-27T09:53:56.344Z,36.60
2019-04-27T09:59:03.468Z,34.70
2019-04-27T10:04:10.288Z,33.50
2019-04-27T10:09:16.054Z,32.80
2019-04-27T10:14:22.210Z,32.40
2019-04-27T10:19:30.758Z,32.40
2019-04-27T10:24:35.798Z,32.00
2019-04-27T10:29:42.444Z,31.50
2019-04-27T10:34:48.205Z,31.20
2019-04-27T10:39:53.925Z,31.00
2019-04-27T10:44:59.641Z,31.10
2019-04-27T10:50:05.919Z,31.30
2019-04-27T10:55:12.377Z,31.20
2019-04-27T11:00:25.673Z,31.30
2019-04-27T11:05:46.035Z,31.40
2019-04-27T11:10:51.656Z,31.40
2019-04-27T11:15:57.483Z,31.40
2019-04-27T11:21:03.106Z,31.50
2019-04-27T11:26:08.560Z,31.70
2019-04-27T11:31:16.978Z,31.70
2019-04-27T11:36:39.394Z,31.60
2019-04-27T11:41:44.930Z,31.40
2019-04-27T11:46:50.542Z,31.50
2019-04-27T11:51:56.670Z,31.40
2019-04-27T11:57:02.827Z,31.20
2019-04-27T12:02:08.361Z,31.00
2019-04-27T12:07:14.192Z,30.70
2019-04-27T12:12:21.927Z,30.70
2019-04-27T12:17:29.199Z,30.00
2019-04-27T12:22:33.915Z,29.80
2019-04-27T12:28:04.595Z,29.50
2019-04-27T12:33:10.119Z,29.20
2019-04-27T12:38:16.179Z,29.00
2019-04-27T12:43:22.357Z,30.50
2019-04-27T12:48:28.195Z,29.70
2019-04-27T12:53:55.855Z,29.80
2019-04-27T12:59:07.553Z,29.60
2019-04-27T13:04:13.247Z,29.70
2019-04-27T13:09:19.150Z,29.50
2019-04-27T13:14:26.327Z,29.60
2019-04-27T13:19:32.328Z,29.60
2019-04-27T13:24:38.035Z,29.50
2019-04-27T13:29:46.557Z,29.40
2019-04-27T13:34:52.560Z,29.40
2019-04-27T13:40:07.183Z,29.30
2019-04-27T13:45:09.710Z,29.40
2019-04-27T13:50:22.024Z,29.40
2019-04-27T13:55:27.840Z,29.50
2019-04-27T14:00:34.831Z,29.70
2019-04-27T14:05:42.829Z,29.80
2019-04-27T14:10:51.317Z,30.00
2019-04-27T14:15:57.006Z,30.30
2019-04-27T14:21:03.204Z,30.40
2019-04-27T14:26:09.144Z,30.40
2019-04-27T14:31:15.319Z,30.50
2019-04-27T14:36:21.192Z,30.70
2019-04-27T14:41:28.229Z,30.70
2019-04-27T14:46:34.080Z,30.70
2019-04-27T14:51:40.195Z,30.70
2019-04-27T14:56:46.409Z,30.80
2019-04-27T15:01:52.240Z,30.90
2019-04-27T15:06:58.193Z,30.90
2019-04-27T15:12:04.421Z,30.80
2019-04-27T15:17:12.771Z,30.80
2019-04-27T15:22:30.033Z,30.70
2019-04-27T15:27:47.107Z,30.70
2019-04-27T15:33:16.285Z,30.50
2019-04-27T15:38:22.686Z,30.60
2019-04-27T15:43:31.618Z,30.80
2019-04-27T15:48:38.457Z,30.80
2019-04-27T15:53:45.936Z,30.80
2019-04-27T15:58:51.221Z,30.80
2019-04-27T16:03:58.317Z,30.90
2019-04-27T16:09:07.699Z,31.00
2019-04-27T16:14:13.497Z,31.10
2019-04-27T16:19:19.731Z,31.20
2019-04-27T16:24:26.677Z,31.20
2019-04-27T16:29:32.662Z,31.20
2019-04-27T16:34:41.249Z,31.20
2019-04-27T16:39:47.515Z,31.30
2019-04-27T16:44:54.562Z,31.30
2019-04-27T16:50:00.840Z,31.40
2019-04-27T16:55:08.633Z,31.40
2019-04-27T17:00:18.279Z,31.40
2019-04-27T17:05:24.377Z,31.40
2019-04-27T17:10:32.020Z,31.50
2019-04-27T17:16:06.199Z,31.50
2019-04-27T17:21:18.793Z,31.50
2019-04-27T17:26:21.865Z,31.60
2019-04-27T17:31:29.620Z,31.70
2019-04-27T17:36:35.486Z,31.70
2019-04-27T17:41:42.224Z,31.80
2019-04-27T17:46:51.150Z,31.80
2019-04-27T17:51:55.611Z,32.00
2019-04-27T17:57:01.164Z,31.80
2019-04-27T18:02:08.950Z,31.90
2019-04-27T18:07:15.651Z,31.90
2019-04-27T18:12:23.286Z,32.10
2019-04-27T18:17:31.185Z,32.20
2019-04-27T18:22:41.629Z,32.30
2019-04-27T18:28:07.969Z,32.40
2019-04-27T18:33:10.981Z,32.00
2019-04-27T18:38:16.643Z,32.60
2019-04-27T18:43:22.194Z,32.90
2019-04-27T18:48:53.757Z,32.70
2019-04-27T18:53:59.830Z,32.70
2019-04-27T18:59:03.760Z,32.70
2019-04-27T19:04:09.376Z,32.80
2019-04-27T19:09:18.495Z,32.80
2019-04-27T19:14:23.887Z,32.90
2019-04-27T19:19:29.411Z,32.90
2019-04-27T19:24:35.073Z,32.90
2019-04-27T19:29:48.531Z,32.80
2019-04-27T19:34:54.210Z,33.00
2019-04-27T19:39:59.712Z,32.80
2019-04-27T19:45:05.896Z,32.80
2019-04-27T19:50:12.638Z,33.10
2019-04-27T19:55:18.911Z,33.00
2019-04-27T20:00:42.453Z,32.80
2019-04-27T20:05:49.187Z,33.10
2019-04-27T20:10:54.646Z,33.00
2019-04-27T20:16:00.972Z,33.00
2019-04-27T20:21:06.693Z,33.20
2019-04-27T20:26:12.287Z,33.20
2019-04-27T20:31:17.837Z,33.10
2019-04-27T20:36:23.277Z,33.20
2019-04-27T20:41:28.825Z,33.20
2019-04-27T20:46:34.259Z,33.30
2019-04-27T20:51:53.804Z,33.20
2019-04-27T20:57:01.312Z,33.30
2019-04-27T21:02:24.254Z,34.10
2019-04-27T21:07:41.743Z,33.50
2019-04-27T21:12:47.467Z,33.50
2019-04-27T21:17:53.377Z,33.50
2019-04-27T21:22:59.067Z,33.50
2019-04-27T21:28:15.497Z,33.60
2019-04-27T21:33:12.218Z,33.60
2019-04-27T21:38:17.725Z,33.80
2019-04-27T21:43:23.352Z,33.90
2019-04-27T21:48:28.943Z,33.90
2019-04-27T21:53:45.125Z,34.00
2019-04-27T21:58:51.168Z,34.00
2019-04-27T22:03:57.697Z,34.10
2019-04-27T22:09:05.515Z,34.10
2019-04-27T22:14:12.598Z,34.10
2019-04-27T22:19:18.303Z,34.20
2019-04-27T22:24:36.466Z,34.20
2019-04-27T22:29:42.048Z,34.10
2019-04-27T22:34:47.600Z,34.10
2019-04-27T22:40:27.229Z,34.20
2019-04-27T22:45:34.149Z,34.80
2019-04-27T22:50:41.313Z,34.60
2019-04-27T22:56:04.687Z,34.70
2019-04-27T23:01:20.151Z,34.70
2019-04-27T23:06:25.862Z,34.80
2019-04-27T23:11:31.455Z,35.20
2019-04-27T23:16:38.844Z,35.70
2019-04-27T23:21:44.287Z,35.30
2019-04-27T23:26:49.939Z,35.30
2019-04-27T23:32:01.820Z,35.90
2019-04-27T23:37:07.382Z,35.10
2019-04-27T23:42:12.986Z,35.20
2019-04-27T23:47:18.571Z,35.10
2019-04-27T23:52:45.556Z,35.10
2019-04-27T23:57:51.015Z,35.20
